Time;durP1;ratioP1;P1;durP2;ratioP2;P2;SDS_P1;SDS_P2;PMS_P1;PMS_P2;Temp;Humidity;BMP_temperature;BMP_pressure;BME280_temperature;BME280_humidity;BME280_pressure;Samples;Min_cycle;Max_cycle;Signal;HPM_P1;HPM_P2
2021/01/10 00:02:10;;;;;;;;;;;2.50;92.70;;;;;;4978502;28;19971;-87
2021/01/10 00:04:36;;;;;;;;;;;2.50;92.70;;;;;;4981616;28;20020;-86
2021/01/10 00:07:02;;;;;;;;;;;2.50;92.70;;;;;;5005810;28;20000;-87
2021/01/10 00:09:27;;;;;;;;;;;2.50;92.80;;;;;;4975903;28;20384;-86
2021/01/10 00:11:52;;;;;;;;;;;2.50;92.70;;;;;;4979971;28;19913;-86
2021/01/10 00:14:18;;;;;;;;;;;2.50;92.70;;;;;;4978761;28;19921;-86
2021/01/10 00:16:44;;;;;;;;;;;2.40;92.70;;;;;;4962306;28;19915;-86
2021/01/10 00:19:09;;;;;;;;;;;2.40;92.70;;;;;;4969361;28;19913;-86
2021/01/10 00:21:35;;;;;;;;;;;2.40;93.00;;;;;;4995930;28;19929;-86
2021/01/10 00:24:00;;;;;;;;;;;2.30;92.70;;;;;;4979102;28;20390;-87
2021/01/10 00:26:33;;;;;;;;;;;2.30;92.70;;;;;;4971742;28;19918;-86
2021/01/10 00:28:58;;;;;;;;;;;2.30;92.70;;;;;;4983539;28;20437;-86
2021/01/10 00:31:30;;;;;;;;;;;2.30;92.70;;;;;;5007959;28;19913;-85
2021/01/10 00:33:56;;;;;;;;;;;2.30;92.80;;;;;;4999338;28;19910;-85
2021/01/10 00:36:22;;;;;;;;;;;2.30;92.80;;;;;;5004907;28;19920;-86
2021/01/10 00:38:47;;;;;;;;;;;2.30;92.80;;;;;;5001244;28;19932;-86
2021/01/10 00:41:13;;;;;;;;;;;2.20;92.70;;;;;;4970527;28;19921;-88
2021/01/10 00:43:38;;;;;;;;;;;2.20;92.70;;;;;;4985825;28;20359;-86
2021/01/10 00:46:04;;;;;;;;;;;2.20;92.70;;;;;;5000890;28;20345;-86
2021/01/10 00:48:29;;;;;;;;;;;2.20;92.70;;;;;;4990739;28;20047;-86
2021/01/10 00:50:55;;;;;;;;;;;2.20;92.70;;;;;;4978888;28;19921;-87
2021/01/10 00:53:20;;;;;;;;;;;2.10;92.70;;;;;;4982383;28;19914;-86
2021/01/10 00:55:46;;;;;;;;;;;2.10;92.70;;;;;;4996385;28;19968;-86
2021/01/10 00:58:12;;;;;;;;;;;2.00;92.50;;;;;;4998580;28;19920;-87
2021/01/10 01:00:38;;;;;;;;;;;2.00;92.60;;;;;;4978707;28;19965;-87
2021/01/10 01:03:04;;;;;;;;;;;1.90;92.70;;;;;;5001568;28;19909;-86
2021/01/10 01:05:29;;;;;;;;;;;1.90;92.70;;;;;;4978322;28;20294;-87
2021/01/10 01:07:55;;;;;;;;;;;1.90;92.70;;;;;;4995028;28;20427;-87
2021/01/10 01:10:21;;;;;;;;;;;1.90;92.70;;;;;;4991782;28;19936;-86
2021/01/10 01:12:46;;;;;;;;;;;1.90;92.70;;;;;;4994358;28;20041;-87
2021/01/10 01:15:12;;;;;;;;;;;1.90;92.70;;;;;;4995054;28;20371;-86
2021/01/10 01:17:39;;;;;;;;;;;1.90;92.70;;;;;;5007714;28;19909;-87
2021/01/10 01:20:05;;;;;;;;;;;1.90;92.70;;;;;;4996983;28;19916;-86
2021/01/10 01:22:30;;;;;;;;;;;1.90;92.70;;;;;;4997576;28;19918;-87
2021/01/10 01:24:56;;;;;;;;;;;1.90;92.70;;;;;;4968273;28;20055;-88
2021/01/10 01:27:21;;;;;;;;;;;1.90;92.80;;;;;;4999568;28;20305;-86
2021/01/10 01:29:47;;;;;;;;;;;1.80;92.80;;;;;;4985924;28;19917;-85
2021/01/10 01:32:12;;;;;;;;;;;1.80;92.80;;;;;;4992372;28;19964;-85
2021/01/10 01:34:38;;;;;;;;;;;1.80;92.80;;;;;;4997685;28;20350;-85
2021/01/10 01:37:03;;;;;;;;;;;1.80;92.80;;;;;;4995494;28;20379;-86
2021/01/10 01:39:29;;;;;;;;;;;1.80;92.80;;;;;;4988586;28;19936;-86
2021/01/10 01:41:54;;;;;;;;;;;1.80;92.80;;;;;;5013689;28;19921;-86
2021/01/10 01:44:20;;;;;;;;;;;1.70;92.70;;;;;;5005858;28;20331;-86
2021/01/10 01:46:45;;;;;;;;;;;1.70;92.80;;;;;;4973138;28;19960;-87
2021/01/10 01:49:11;;;;;;;;;;;1.80;92.80;;;;;;4981135;28;19917;-86
2021/01/10 01:51:38;;;;;;;;;;;1.70;92.80;;;;;;4997598;28;19964;-85
2021/01/10 01:54:04;;;;;;;;;;;1.70;92.80;;;;;;5013710;28;19914;-86
2021/01/10 01:56:30;;;;;;;;;;;1.70;92.80;;;;;;4985390;28;19918;-86
2021/01/10 01:58:58;;;;;;;;;;;1.70;92.80;;;;;;4994254;28;19910;-86
2021/01/10 02:01:24;;;;;;;;;;;1.70;92.80;;;;;;4997314;28;20379;-86
2021/01/10 02:03:50;;;;;;;;;;;1.70;92.80;;;;;;4997041;28;19940;-87
2021/01/10 02:06:21;;;;;;;;;;;1.60;92.80;;;;;;4977900;28;19937;-86
2021/01/10 02:08:48;;;;;;;;;;;1.60;92.80;;;;;;4995263;28;19917;-86
2021/01/10 02:11:14;;;;;;;;;;;1.60;92.80;;;;;;4995159;28;19910;-86
2021/01/10 02:13:41;;;;;;;;;;;1.60;93.00;;;;;;4999913;28;19932;-86
2021/01/10 02:16:07;;;;;;;;;;;1.70;92.80;;;;;;5004818;28;19909;-86
2021/01/10 02:18:34;;;;;;;;;;;1.70;92.80;;;;;;4980553;28;20667;-86
2021/01/10 02:21:01;;;;;;;;;;;1.60;92.80;;;;;;5004003;28;20363;-86
2021/01/10 02:23:28;;;;;;;;;;;1.60;92.80;;;;;;4995690;28;20418;-87
2021/01/10 02:25:54;;;;;;;;;;;1.60;92.80;;;;;;4985061;28;19921;-86
2021/01/10 02:28:21;;;;;;;;;;;1.60;92.80;;;;;;5014188;28;19914;-86
2021/01/10 02:30:46;;;;;;;;;;;1.60;92.80;;;;;;4996737;28;19944;-86
2021/01/10 02:33:15;;;;;;;;;;;1.60;92.90;;;;;;4996581;28;19953;-86
2021/01/10 02:35:41;;;;;;;;;;;1.60;92.90;;;;;;4996356;28;19914;-86
2021/01/10 02:38:12;;;;;;;;;;;1.60;92.90;;;;;;5014105;28;19913;-86
2021/01/10 02:40:40;;;;;;;;;;;1.60;92.90;;;;;;4996494;28;19917;-86
2021/01/10 02:43:22;;;;;;;;;;;1.60;93.00;;;;;;5013755;28;19909;-86
2021/01/10 02:45:50;;;;;;;;;;;1.60;93.00;;;;;;4995207;28;19917;-86
2021/01/10 02:48:15;;;;;;;;;;;1.60;92.90;;;;;;4996622;28;19909;-87
2021/01/10 02:50:41;;;;;;;;;;;1.60;92.80;;;;;;4980295;28;20427;-86
2021/01/10 02:53:07;;;;;;;;;;;1.50;92.90;;;;;;5013878;28;20008;-87
2021/01/10 02:55:32;;;;;;;;;;;1.60;92.80;;;;;;4996482;28;19913;-86
2021/01/10 02:58:07;;;;;;;;;;;1.50;92.80;;;;;;5013837;28;19924;-87
2021/01/10 03:00:33;;;;;;;;;;;1.50;92.80;;;;;;4996230;28;19910;-87
2021/01/10 03:03:00;;;;;;;;;;;1.50;92.80;;;;;;4995494;28;19932;-86
2021/01/10 03:05:27;;;;;;;;;;;1.50;92.80;;;;;;4996289;28;19914;-87
2021/01/10 03:07:53;;;;;;;;;;;1.50;92.80;;;;;;5013932;28;19909;-86
2021/01/10 03:10:18;;;;;;;;;;;1.40;92.70;;;;;;5004794;28;19914;-86
2021/01/10 03:12:44;;;;;;;;;;;1.40;92.70;;;;;;4994044;28;20273;-87
2021/01/10 03:15:10;;;;;;;;;;;1.40;92.80;;;;;;4993469;28;19909;-87
2021/01/10 03:17:42;;;;;;;;;;;1.40;92.70;;;;;;5013624;28;19910;-87
2021/01/10 03:20:09;;;;;;;;;;;1.40;92.70;;;;;;4999907;28;19910;-87
2021/01/10 03:22:34;;;;;;;;;;;1.40;92.70;;;;;;4993229;28;19929;-87
2021/01/10 03:25:00;;;;;;;;;;;1.40;92.70;;;;;;4983436;28;20295;-87
2021/01/10 03:27:25;;;;;;;;;;;1.40;92.70;;;;;;4960262;28;20284;-89
2021/01/10 03:29:51;;;;;;;;;;;1.40;92.70;;;;;;4986102;28;20358;-87
2021/01/10 03:32:17;;;;;;;;;;;1.40;92.70;;;;;;4989898;28;20272;-87
2021/01/10 03:34:42;;;;;;;;;;;1.40;92.70;;;;;;4992819;28;19941;-86
2021/01/10 03:37:08;;;;;;;;;;;1.40;92.70;;;;;;4958087;28;20287;-87
2021/01/10 03:39:34;;;;;;;;;;;1.30;92.70;;;;;;4965079;28;19913;-87
2021/01/10 03:41:59;;;;;;;;;;;1.40;92.70;;;;;;4954474;28;19922;-87
2021/01/10 03:44:25;;;;;;;;;;;1.40;93.00;;;;;;4989691;28;19910;-87
2021/01/10 03:46:51;;;;;;;;;;;1.40;92.70;;;;;;4993795;28;19910;-88
2021/01/10 03:49:17;;;;;;;;;;;1.30;92.70;;;;;;4973976;28;19918;-87
2021/01/10 03:51:42;;;;;;;;;;;1.30;92.80;;;;;;4987892;28;19952;-89
2021/01/10 03:54:08;;;;;;;;;;;1.30;92.80;;;;;;4983153;28;19920;-87
2021/01/10 03:56:33;;;;;;;;;;;1.30;92.80;;;;;;4984102;28;19964;-88
2021/01/10 03:58:59;;;;;;;;;;;1.30;92.80;;;;;;4980333;28;19920;-89
2021/01/10 04:01:24;;;;;;;;;;;1.30;92.90;;;;;;5005384;28;20317;-87
2021/01/10 04:03:50;;;;;;;;;;;1.30;92.90;;;;;;4983237;28;19914;-87
2021/01/10 04:06:16;;;;;;;;;;;1.30;92.90;;;;;;4981438;28;19914;-88
2021/01/10 04:08:41;;;;;;;;;;;1.30;92.90;;;;;;4964473;28;20030;-89
2021/01/10 04:11:07;;;;;;;;;;;1.30;92.90;;;;;;4979944;28;19942;-88
2021/01/10 04:13:32;;;;;;;;;;;1.40;92.90;;;;;;4997381;28;19914;-87
2021/01/10 04:15:58;;;;;;;;;;;1.40;92.90;;;;;;4963779;28;19918;-88
2021/01/10 04:18:23;;;;;;;;;;;1.40;92.90;;;;;;4979954;28;19917;-88
2021/01/10 04:20:49;;;;;;;;;;;1.40;92.90;;;;;;4979784;28;20376;-88
2021/01/10 04:23:14;;;;;;;;;;;1.40;92.90;;;;;;4963414;28;20375;-87
2021/01/10 04:25:40;;;;;;;;;;;1.40;92.90;;;;;;4979346;28;19929;-88
2021/01/10 04:28:06;;;;;;;;;;;1.40;92.90;;;;;;4979882;28;19921;-88
2021/01/10 04:30:31;;;;;;;;;;;1.30;92.90;;;;;;4991675;28;19914;-88
2021/01/10 04:32:57;;;;;;;;;;;1.40;92.90;;;;;;4955565;28;20248;-87
2021/01/10 04:35:22;;;;;;;;;;;1.40;92.90;;;;;;4976333;28;19925;-88
2021/01/10 04:37:48;;;;;;;;;;;1.40;92.90;;;;;;4963587;28;20431;-88
2021/01/10 04:40:14;;;;;;;;;;;1.40;92.90;;;;;;4963373;28;19914;-88
2021/01/10 04:42:40;;;;;;;;;;;1.40;92.90;;;;;;4979665;28;19925;-88
2021/01/10 04:45:06;;;;;;;;;;;1.40;92.90;;;;;;4979368;28;19914;-89
2021/01/10 04:47:32;;;;;;;;;;;1.40;92.90;;;;;;4979103;28;20048;-88
2021/01/10 04:49:57;;;;;;;;;;;1.40;92.90;;;;;;4979479;28;20002;-88
2021/01/10 04:52:24;;;;;;;;;;;1.30;92.90;;;;;;4963287;28;19918;-88
2021/01/10 04:54:49;;;;;;;;;;;1.30;92.90;;;;;;4976155;28;19918;-88
2021/01/10 04:57:18;;;;;;;;;;;1.30;92.90;;;;;;4973815;28;20283;-89
2021/01/10 04:59:43;;;;;;;;;;;1.30;92.90;;;;;;4979283;28;20670;-89
2021/01/10 05:02:10;;;;;;;;;;;1.30;92.90;;;;;;4979136;28;19918;-89
2021/01/10 05:04:36;;;;;;;;;;;1.40;93.00;;;;;;4996069;28;19917;-89
2021/01/10 05:07:02;;;;;;;;;;;1.30;92.90;;;;;;4979330;28;19910;-88
2021/01/10 05:09:27;;;;;;;;;;;1.30;92.90;;;;;;4996132;28;19910;-87
2021/01/10 05:11:53;;;;;;;;;;;1.30;92.90;;;;;;4996887;28;20411;-88
2021/01/10 05:14:19;;;;;;;;;;;1.30;92.90;;;;;;4963301;28;19917;-89
2021/01/10 05:16:45;;;;;;;;;;;1.30;92.90;;;;;;4996558;28;20001;-89
2021/01/10 05:19:10;;;;;;;;;;;1.30;92.90;;;;;;4979702;28;19918;-88
2021/01/10 05:21:39;;;;;;;;;;;1.40;92.90;;;;;;4979474;28;19949;-89
2021/01/10 05:24:05;;;;;;;;;;;1.30;92.80;;;;;;4979097;28;19976;-89
2021/01/10 05:26:31;;;;;;;;;;;1.30;92.80;;;;;;4979931;28;19917;-88
2021/01/10 05:28:57;;;;;;;;;;;1.30;92.80;;;;;;4969276;28;19917;-87
2021/01/10 05:31:42;;;;;;;;;;;1.30;92.90;;;;;;4974221;28;20388;-88
2021/01/10 05:34:15;;;;;;;;;;;1.30;92.80;;;;;;4978988;28;20008;-89
2021/01/10 05:36:41;;;;;;;;;;;1.30;92.80;;;;;;4992244;28;20419;-89
2021/01/10 05:39:26;;;;;;;;;;;1.30;92.80;;;;;;4978801;28;20389;-88
2021/01/10 05:41:59;;;;;;;;;;;1.30;92.80;;;;;;4982786;28;19925;-88
2021/01/10 05:44:25;;;;;;;;;;;1.20;92.80;;;;;;4963663;28;19918;-88
2021/01/10 05:47:00;;;;;;;;;;;1.20;92.80;;;;;;4962609;28;19914;-87
2021/01/10 05:49:26;;;;;;;;;;;1.20;92.80;;;;;;4978878;28;19910;-88
2021/01/10 05:51:53;;;;;;;;;;;1.20;92.80;;;;;;4963037;28;20367;-89
2021/01/10 05:54:42;;;;;;;;;;;1.20;92.80;;;;;;4979006;28;19914;-88
2021/01/10 05:57:08;;;;;;;;;;;1.20;92.90;;;;;;4988337;28;20063;-88
2021/01/10 05:59:35;;;;;;;;;;;1.20;92.90;;;;;;4995780;28;19921;-88
2021/01/10 06:02:02;;;;;;;;;;;1.30;93.00;;;;;;4979062;28;19925;-90
2021/01/10 06:04:27;;;;;;;;;;;1.30;92.90;;;;;;4978488;28;19910;-88
2021/01/10 06:06:53;;;;;;;;;;;1.30;92.90;;;;;;4996007;28;20049;-88
2021/01/10 06:09:20;;;;;;;;;;;1.20;92.90;;;;;;4978571;28;19972;-89
2021/01/10 06:11:45;;;;;;;;;;;1.30;92.90;;;;;;4978810;28;19925;-89
2021/01/10 06:14:17;;;;;;;;;;;1.20;92.90;;;;;;4961816;28;19917;-90
2021/01/10 06:16:49;;;;;;;;;;;1.30;93.00;;;;;;4978272;28;19917;-88
2021/01/10 06:19:15;;;;;;;;;;;1.30;93.30;;;;;;4978896;28;19910;-89
2021/01/10 06:21:46;;;;;;;;;;;1.30;93.10;;;;;;4978370;28;19993;-89
2021/01/10 06:24:15;;;;;;;;;;;1.30;93.10;;;;;;4979620;28;19933;-89
2021/01/10 06:26:44;;;;;;;;;;;1.30;93.10;;;;;;4978965;28;19909;-89
2021/01/10 06:29:12;;;;;;;;;;;1.30;93.20;;;;;;4977127;28;20000;-89
2021/01/10 06:31:38;;;;;;;;;;;1.30;93.20;;;;;;4994452;28;19913;-88
2021/01/10 06:34:05;;;;;;;;;;;1.40;93.20;;;;;;4976906;28;20387;-89
2021/01/10 06:36:35;;;;;;;;;;;1.40;93.20;;;;;;4977350;28;19910;-90
2021/01/10 06:39:08;;;;;;;;;;;1.40;93.30;;;;;;4994851;28;19910;-87
2021/01/10 06:41:33;;;;;;;;;;;1.40;93.30;;;;;;4977027;28;19946;-89
2021/01/10 06:43:59;;;;;;;;;;;1.40;93.30;;;;;;4977482;28;19910;-89
2021/01/10 06:46:25;;;;;;;;;;;1.40;93.20;;;;;;4977462;28;19914;-88
2021/01/10 06:48:51;;;;;;;;;;;1.50;93.30;;;;;;4960042;28;19933;-89
2021/01/10 06:51:17;;;;;;;;;;;1.50;93.30;;;;;;4976903;28;19977;-89
2021/01/10 06:53:43;;;;;;;;;;;1.50;93.30;;;;;;4976767;28;19914;-89
2021/01/10 06:56:08;;;;;;;;;;;1.50;93.30;;;;;;4993412;28;20403;-89
2021/01/10 06:58:35;;;;;;;;;;;1.50;93.30;;;;;;4978054;28;20657;-86
2021/01/10 07:01:01;;;;;;;;;;;1.60;93.30;;;;;;4977654;28;19917;-87
2021/01/10 07:03:26;;;;;;;;;;;1.60;93.30;;;;;;4961060;28;19914;-87
2021/01/10 07:05:58;;;;;;;;;;;1.60;93.30;;;;;;4974953;28;19917;-87
2021/01/10 07:08:50;;;;;;;;;;;1.60;93.30;;;;;;4965560;28;19910;-88
2021/01/10 07:11:21;;;;;;;;;;;1.60;93.30;;;;;;4977767;28;20000;-89
2021/01/10 07:13:51;;;;;;;;;;;1.60;93.30;;;;;;4966562;28;20009;-88
2021/01/10 07:16:20;;;;;;;;;;;1.70;93.30;;;;;;4974162;28;19910;-89
2021/01/10 07:18:56;;;;;;;;;;;1.70;93.30;;;;;;4977019;28;19918;-88
2021/01/10 07:21:31;;;;;;;;;;;1.70;93.30;;;;;;4993995;28;19925;-88
2021/01/10 07:24:12;;;;;;;;;;;1.70;93.30;;;;;;4980146;28;19932;-88
2021/01/10 07:26:55;;;;;;;;;;;1.70;93.30;;;;;;5013917;28;20367;-88
2021/01/10 07:29:41;;;;;;;;;;;1.70;93.30;;;;;;4995970;28;19910;-88
2021/01/10 07:32:21;;;;;;;;;;;1.70;93.30;;;;;;4989632;28;20367;-88
2021/01/10 07:34:47;;;;;;;;;;;1.70;93.30;;;;;;5009003;28;19910;-88
2021/01/10 07:37:15;;;;;;;;;;;1.70;93.30;;;;;;4996045;28;19963;-87
2021/01/10 07:39:51;;;;;;;;;;;1.70;93.30;;;;;;4996005;28;19963;-87
2021/01/10 07:42:17;;;;;;;;;;;1.80;93.20;;;;;;4983205;28;20376;-87
2021/01/10 07:44:53;;;;;;;;;;;1.80;93.30;;;;;;4995854;28;20008;-88
2021/01/10 07:47:31;;;;;;;;;;;1.80;93.30;;;;;;4995385;28;19917;-91
2021/01/10 07:49:57;;;;;;;;;;;1.80;93.30;;;;;;4995622;28;19920;-86
2021/01/10 07:52:45;;;;;;;;;;;1.80;93.40;;;;;;4995581;28;20319;-86
2021/01/10 07:55:20;;;;;;;;;;;1.80;93.40;;;;;;5027051;28;19909;-87
2021/01/10 07:57:51;;;;;;;;;;;1.80;93.40;;;;;;5009075;28;19919;-87
2021/01/10 08:00:17;;;;;;;;;;;1.80;93.50;;;;;;4998809;28;19910;-85
2021/01/10 08:02:49;;;;;;;;;;;1.80;93.50;;;;;;4995734;28;19972;-87
2021/01/10 08:05:15;;;;;;;;;;;1.80;93.50;;;;;;4995658;28;19916;-87
2021/01/10 08:07:54;;;;;;;;;;;1.90;93.50;;;;;;4979466;28;19936;-87
2021/01/10 08:10:20;;;;;;;;;;;1.90;93.50;;;;;;4983699;28;19909;-89
2021/01/10 08:12:46;;;;;;;;;;;1.90;93.60;;;;;;4994091;28;19932;-89
2021/01/10 08:15:12;;;;;;;;;;;1.90;93.60;;;;;;4979761;28;19936;-88
2021/01/10 08:17:38;;;;;;;;;;;1.90;93.60;;;;;;5013313;28;19933;-89
2021/01/10 08:20:08;;;;;;;;;;;1.90;93.70;;;;;;4979442;28;19914;-90
2021/01/10 08:22:33;;;;;;;;;;;1.80;93.70;;;;;;4994779;28;20004;-90
2021/01/10 08:25:03;;;;;;;;;;;1.90;93.70;;;;;;5012383;28;19997;-90
2021/01/10 08:27:28;;;;;;;;;;;1.90;93.70;;;;;;5012155;28;19916;-88
2021/01/10 08:29:54;;;;;;;;;;;1.90;93.70;;;;;;4979174;28;19918;-88
2021/01/10 08:32:20;;;;;;;;;;;2.00;93.70;;;;;;4994789;28;19909;-88
2021/01/10 08:34:51;;;;;;;;;;;2.00;93.80;;;;;;4985850;28;20264;-89
2021/01/10 08:37:20;;;;;;;;;;;2.00;93.80;;;;;;5005499;28;19917;-92
2021/01/10 08:39:58;;;;;;;;;;;2.00;93.80;;;;;;4983687;28;19957;-87
2021/01/10 08:42:24;;;;;;;;;;;2.10;93.80;;;;;;5000575;28;19929;-87
2021/01/10 08:44:50;;;;;;;;;;;2.10;93.80;;;;;;5002956;28;20276;-87
2021/01/10 08:47:15;;;;;;;;;;;2.10;93.70;;;;;;4987757;28;19913;-92
2021/01/10 08:49:41;;;;;;;;;;;2.10;93.70;;;;;;4981373;28;20280;-86
2021/01/10 08:52:11;;;;;;;;;;;2.10;93.70;;;;;;4980445;28;20008;-86
2021/01/10 08:54:37;;;;;;;;;;;2.10;93.70;;;;;;5010521;28;19914;-86
2021/01/10 08:57:03;;;;;;;;;;;2.10;93.70;;;;;;4982314;28;19914;-86
2021/01/10 08:59:35;;;;;;;;;;;2.00;93.70;;;;;;4996720;28;19914;-85
2021/01/10 09:02:07;;;;;;;;;;;2.00;93.90;;;;;;4981127;28;20011;-85
2021/01/10 09:04:42;;;;;;;;;;;2.00;93.90;;;;;;5008903;28;19916;-85
2021/01/10 09:07:11;;;;;;;;;;;2.00;93.80;;;;;;4983001;28;19914;-86
2021/01/10 09:09:39;;;;;;;;;;;2.00;93.90;;;;;;5015615;28;20056;-87
2021/01/10 09:12:14;;;;;;;;;;;2.00;93.90;;;;;;5015692;28;19925;-87
2021/01/10 09:15:08;;;;;;;;;;;2.10;93.90;;;;;;4997719;28;20396;-89
2021/01/10 09:17:38;;;;;;;;;;;2.10;93.90;;;;;;4989412;28;19959;-88
2021/01/10 09:20:05;;;;;;;;;;;2.10;93.90;;;;;;5014865;28;20048;-86
2021/01/10 09:22:33;;;;;;;;;;;2.10;94.00;;;;;;5014656;28;20020;-90
2021/01/10 09:25:07;;;;;;;;;;;2.10;94.00;;;;;;4997439;28;19925;-87
2021/01/10 09:27:32;;;;;;;;;;;2.20;94.00;;;;;;5014129;28;19910;-88
2021/01/10 09:30:02;;;;;;;;;;;2.10;94.00;;;;;;5003413;28;19929;-88
2021/01/10 09:32:28;;;;;;;;;;;2.20;94.00;;;;;;4985867;28;20383;-87
2021/01/10 09:34:57;;;;;;;;;;;2.20;94.10;;;;;;4997590;28;19910;-88
2021/01/10 09:37:27;;;;;;;;;;;2.20;94.10;;;;;;4996022;28;19913;-87
2021/01/10 09:39:52;;;;;;;;;;;2.20;94.10;;;;;;4995314;28;20290;-89
2021/01/10 09:42:19;;;;;;;;;;;2.20;94.10;;;;;;4996777;28;19927;-87
2021/01/10 09:44:54;;;;;;;;;;;2.20;94.10;;;;;;4979917;28;20302;-87
2021/01/10 09:47:35;;;;;;;;;;;2.20;94.10;;;;;;4997022;28;19909;-88
2021/01/10 09:50:08;;;;;;;;;;;2.20;94.10;;;;;;4996683;28;19909;-87
2021/01/10 09:52:44;;;;;;;;;;;2.20;94.20;;;;;;4995132;28;19921;-89
2021/01/10 09:55:09;;;;;;;;;;;2.20;94.20;;;;;;5008495;28;19917;-88
2021/01/10 09:57:38;;;;;;;;;;;2.30;94.20;;;;;;4980850;28;19913;-87
2021/01/10 10:00:06;;;;;;;;;;;2.30;94.20;;;;;;4980784;28;19918;-87
2021/01/10 10:02:35;;;;;;;;;;;2.30;94.20;;;;;;5014339;28;19975;-90
2021/01/10 10:05:08;;;;;;;;;;;2.30;94.30;;;;;;4984267;28;19983;-88
2021/01/10 10:07:35;;;;;;;;;;;2.30;94.40;;;;;;5004224;28;19909;-88
2021/01/10 10:10:05;;;;;;;;;;;2.40;94.50;;;;;;4983064;28;19996;-88
2021/01/10 10:12:31;;;;;;;;;;;2.40;94.40;;;;;;4986274;28;20528;-87
2021/01/10 10:15:05;;;;;;;;;;;2.40;94.40;;;;;;4994528;28;19960;-87
2021/01/10 10:17:31;;;;;;;;;;;2.50;94.40;;;;;;5002306;28;20418;-87
2021/01/10 10:19:57;;;;;;;;;;;2.50;94.40;;;;;;4987511;28;19910;-88
2021/01/10 10:22:23;;;;;;;;;;;2.50;94.40;;;;;;4997011;28;19980;-87
2021/01/10 10:24:49;;;;;;;;;;;2.50;94.40;;;;;;5000729;28;19929;-88
2021/01/10 10:27:14;;;;;;;;;;;2.60;94.50;;;;;;4986058;28;20004;-87
2021/01/10 10:29:40;;;;;;;;;;;2.50;94.50;;;;;;4993789;28;19914;-87
2021/01/10 10:32:05;;;;;;;;;;;2.60;94.40;;;;;;4977272;28;19914;-87
2021/01/10 10:34:31;;;;;;;;;;;2.60;94.50;;;;;;4977138;28;20383;-87
2021/01/10 10:36:59;;;;;;;;;;;2.60;94.50;;;;;;4993152;28;19917;-87
2021/01/10 10:39:25;;;;;;;;;;;2.60;94.60;;;;;;4977143;28;19929;-87
2021/01/10 10:41:51;;;;;;;;;;;2.60;94.60;;;;;;4993679;28;19926;-88
2021/01/10 10:44:17;;;;;;;;;;;2.60;94.70;;;;;;4992774;28;20339;-85
2021/01/10 10:46:42;;;;;;;;;;;2.60;94.60;;;;;;5005591;28;19919;-88
2021/01/10 10:49:08;;;;;;;;;;;2.60;94.70;;;;;;4992627;28;20383;-87
2021/01/10 10:51:33;;;;;;;;;;;2.60;94.90;;;;;;4992275;28;19917;-86
2021/01/10 10:53:59;;;;;;;;;;;2.70;95.00;;;;;;4992198;28;20000;-87
2021/01/10 10:56:33;;;;;;;;;;;2.70;94.90;;;;;;4976142;28;20372;-87
2021/01/10 10:58:58;;;;;;;;;;;2.70;95.00;;;;;;4993991;28;19928;-87
2021/01/10 11:01:24;;;;;;;;;;;2.70;95.10;;;;;;5013195;28;19925;-87
2021/01/10 11:03:49;;;;;;;;;;;2.70;95.10;;;;;;4981312;28;20375;-87
2021/01/10 11:06:15;;;;;;;;;;;2.70;95.20;;;;;;5004280;28;19960;-87
2021/01/10 11:08:40;;;;;;;;;;;2.70;95.10;;;;;;4982975;28;20363;-87
2021/01/10 11:11:06;;;;;;;;;;;2.80;95.10;;;;;;4995823;28;19920;-88
2021/01/10 11:13:31;;;;;;;;;;;2.80;95.20;;;;;;4989684;28;19960;-87
2021/01/10 11:15:57;;;;;;;;;;;2.80;95.20;;;;;;4991904;28;20455;-87
2021/01/10 11:18:22;;;;;;;;;;;2.90;95.20;;;;;;4992311;28;19918;-87
2021/01/10 11:20:51;;;;;;;;;;;2.90;95.20;;;;;;4985735;28;19925;-86
2021/01/10 11:23:16;;;;;;;;;;;2.90;95.20;;;;;;4994854;28;19926;-86
2021/01/10 11:25:42;;;;;;;;;;;2.90;95.30;;;;;;4997510;28;20406;-86
2021/01/10 11:28:08;;;;;;;;;;;3.00;95.60;;;;;;5003757;28;19914;-86
2021/01/10 11:30:34;;;;;;;;;;;3.00;95.70;;;;;;4991809;28;20360;-87
2021/01/10 11:32:59;;;;;;;;;;;3.00;95.80;;;;;;4991452;28;19918;-87
2021/01/10 11:35:25;;;;;;;;;;;3.00;95.80;;;;;;4975436;28;19918;-86
2021/01/10 11:37:53;;;;;;;;;;;3.20;95.80;;;;;;4987990;28;20433;-85
2021/01/10 11:40:19;;;;;;;;;;;3.20;95.60;;;;;;4975880;28;19953;-85
2021/01/10 11:42:47;;;;;;;;;;;3.40;95.60;;;;;;4981945;28;20410;-86
2021/01/10 11:45:13;;;;;;;;;;;3.50;95.50;;;;;;4990403;28;20367;-85
2021/01/10 11:47:38;;;;;;;;;;;3.50;95.40;;;;;;5000867;28;19928;-86
2021/01/10 11:50:04;;;;;;;;;;;3.60;95.40;;;;;;4998354;28;20268;-86
2021/01/10 11:52:29;;;;;;;;;;;3.60;95.50;;;;;;5012582;28;19918;-85
2021/01/10 11:54:55;;;;;;;;;;;3.70;95.30;;;;;;4996049;28;19960;-85
2021/01/10 11:57:20;;;;;;;;;;;3.80;95.40;;;;;;4991437;28;19918;-85
2021/01/10 11:59:46;;;;;;;;;;;3.90;95.40;;;;;;4991348;28;20344;-86
2021/01/10 12:02:12;;;;;;;;;;;4.00;95.60;;;;;;4979060;28;19940;-86
2021/01/10 12:04:37;;;;;;;;;;;4.10;95.50;;;;;;5002115;28;19928;-85
2021/01/10 12:07:03;;;;;;;;;;;4.10;95.20;;;;;;4992126;28;19918;-86
2021/01/10 12:09:28;;;;;;;;;;;4.20;94.70;;;;;;4991147;28;20333;-85
2021/01/10 12:11:54;;;;;;;;;;;4.20;94.90;;;;;;4991020;28;19913;-86
2021/01/10 12:14:19;;;;;;;;;;;4.30;95.00;;;;;;4993311;28;20391;-85
2021/01/10 12:16:45;;;;;;;;;;;4.40;95.10;;;;;;4978562;28;20363;-86
2021/01/10 12:19:10;;;;;;;;;;;4.50;95.00;;;;;;5008805;28;19918;-86
2021/01/10 12:21:36;;;;;;;;;;;4.60;95.00;;;;;;4978331;28;19964;-85
2021/01/10 12:24:01;;;;;;;;;;;4.70;94.80;;;;;;4977807;28;20387;-85
2021/01/10 12:26:27;;;;;;;;;;;4.80;94.40;;;;;;5004051;28;19913;-86
2021/01/10 12:28:53;;;;;;;;;;;4.80;94.00;;;;;;5015154;28;19917;-87
2021/01/10 12:31:18;;;;;;;;;;;4.90;93.50;;;;;;4978443;28;19918;-85
2021/01/10 12:33:44;;;;;;;;;;;4.90;93.60;;;;;;4990003;28;20375;-85
2021/01/10 12:36:10;;;;;;;;;;;4.90;93.70;;;;;;4997513;28;19914;-85
2021/01/10 12:38:36;;;;;;;;;;;5.00;93.70;;;;;;5001198;28;19915;-86
2021/01/10 12:41:02;;;;;;;;;;;5.00;93.50;;;;;;4997862;28;19952;-85
2021/01/10 12:43:27;;;;;;;;;;;5.00;93.40;;;;;;4997545;28;19960;-85
2021/01/10 12:45:53;;;;;;;;;;;5.10;93.50;;;;;;4981126;28;19917;-85
2021/01/10 12:48:18;;;;;;;;;;;5.10;93.50;;;;;;5014627;28;19917;-84
2021/01/10 12:50:44;;;;;;;;;;;5.10;93.50;;;;;;4965747;28;20265;-85
2021/01/10 12:53:10;;;;;;;;;;;5.10;93.40;;;;;;5008377;28;19910;-86
2021/01/10 12:55:36;;;;;;;;;;;5.20;93.20;;;;;;4977959;28;19957;-85
2021/01/10 12:58:02;;;;;;;;;;;5.30;93.30;;;;;;4972713;28;19924;-85
2021/01/10 13:00:28;;;;;;;;;;;5.30;93.30;;;;;;4980989;28;19914;-85
2021/01/10 13:02:53;;;;;;;;;;;5.30;93.20;;;;;;4997177;28;19928;-86
2021/01/10 13:05:19;;;;;;;;;;;5.40;92.50;;;;;;4978524;28;19925;-85
2021/01/10 13:07:47;;;;;;;;;;;5.40;92.80;;;;;;4977543;28;19914;-86
2021/01/10 13:10:13;;;;;;;;;;;5.50;92.90;;;;;;4975158;28;19967;-85
2021/01/10 13:12:38;;;;;;;;;;;5.60;92.90;;;;;;4997126;28;20012;-85
2021/01/10 13:15:04;;;;;;;;;;;5.60;92.70;;;;;;4996825;28;19917;-85
2021/01/10 13:17:30;;;;;;;;;;;5.60;92.60;;;;;;4993915;28;19917;-85
2021/01/10 13:19:56;;;;;;;;;;;5.70;91.90;;;;;;4966931;28;20044;-85
2021/01/10 13:22:25;;;;;;;;;;;5.80;92.10;;;;;;4996533;28;20083;-85
2021/01/10 13:24:51;;;;;;;;;;;5.80;91.80;;;;;;4996338;28;19932;-86
2021/01/10 13:27:16;;;;;;;;;;;5.90;91.70;;;;;;5001139;28;19910;-85
2021/01/10 13:29:42;;;;;;;;;;;5.90;91.60;;;;;;4996676;28;20286;-84
2021/01/10 13:32:07;;;;;;;;;;;6.00;91.70;;;;;;4996749;28;19972;-86
2021/01/10 13:34:33;;;;;;;;;;;6.00;91.10;;;;;;4996854;28;19913;-85
2021/01/10 13:36:59;;;;;;;;;;;6.10;90.60;;;;;;4996022;28;19917;-85
2021/01/10 13:39:25;;;;;;;;;;;6.10;91.10;;;;;;4997228;28;20454;-86
2021/01/10 13:41:51;;;;;;;;;;;6.20;90.90;;;;;;4996461;28;19971;-86
2021/01/10 13:44:16;;;;;;;;;;;6.20;90.40;;;;;;4996553;28;19937;-84
2021/01/10 13:46:42;;;;;;;;;;;6.20;90.80;;;;;;4996393;28;20371;-85
2021/01/10 13:49:07;;;;;;;;;;;6.20;89.60;;;;;;5013854;28;19945;-84
2021/01/10 13:51:33;;;;;;;;;;;6.20;90.40;;;;;;4996531;28;19968;-85
2021/01/10 13:53:59;;;;;;;;;;;6.10;90.30;;;;;;4979887;28;19917;-86
2021/01/10 13:56:25;;;;;;;;;;;6.10;90.60;;;;;;4996184;28;19941;-84
2021/01/10 13:58:51;;;;;;;;;;;6.10;90.80;;;;;;4995944;28;19913;-84
2021/01/10 14:01:17;;;;;;;;;;;6.20;90.90;;;;;;5013652;28;19924;-84
2021/01/10 14:03:43;;;;;;;;;;;6.20;91.10;;;;;;4996827;28;20291;-85
2021/01/10 14:06:17;;;;;;;;;;;6.20;90.90;;;;;;5006158;28;20008;-85
2021/01/10 14:08:43;;;;;;;;;;;6.20;90.80;;;;;;5009245;28;20286;-85
2021/01/10 14:11:08;;;;;;;;;;;6.20;90.60;;;;;;4996076;28;20055;-85
2021/01/10 14:13:34;;;;;;;;;;;6.20;90.10;;;;;;4995938;28;19961;-85
2021/01/10 14:16:03;;;;;;;;;;;6.10;90.10;;;;;;4995585;28;20003;-85
2021/01/10 14:18:28;;;;;;;;;;;6.10;90.40;;;;;;5002537;28;19913;-85
2021/01/10 14:20:54;;;;;;;;;;;6.10;90.20;;;;;;5010701;28;19991;-84
2021/01/10 14:23:19;;;;;;;;;;;6.10;90.20;;;;;;4995700;28;20299;-86
2021/01/10 14:25:45;;;;;;;;;;;6.10;89.60;;;;;;5013232;28;19952;-84
2021/01/10 14:28:12;;;;;;;;;;;6.10;90.20;;;;;;4979205;28;20409;-85
2021/01/10 14:30:38;;;;;;;;;;;6.10;90.20;;;;;;4995573;28;19909;-84
2021/01/10 14:33:04;;;;;;;;;;;6.10;90.20;;;;;;4977111;28;19921;-86